YYZ weather

Public forecast

Using degrees Celsius for public forecast. Weather courtesy of forecast.io.

Current aviation weather report (METAR) for Lester B. Pearson International Airport

Retrieved 2020/08/10 10:00 UTC (42 minutes ago):

CYYZ 101000Z 27005KT 15SM FEW060 SCT100 SCT250 22/20 A2998 RMK SC1AC2CI1 CB TOPS DIST E SLP152 DENSITY ALT 1500FT

Aviation forecast (TAF) for Lester B. Pearson International Airport

Retrieved 2020/08/10 09:52 UTC (50 minutes ago):

TAF CYYZ 100839Z 1009/1112 23007KT P6SM FEW070 FM101400 23012KT P6SM FEW040 FM101700 23012G22KT P6SM SCT050 TEMPO 1018/1022 P6SM VCTS SCT050CB FM110200 23008KT P6SM SKC FM111000 23008KT P6SM BKN040 BKN100 TEMPO 1110/1112 P6SM -SHRA RMK NXT FCST BY 101200Z